createdAt,value
2022-10-04T00:00:11.518Z,91.07
2022-10-04T00:02:46.806Z,90.43
2022-10-04T00:05:19.019Z,90.93
2022-10-04T00:07:52.447Z,91.14
2022-10-04T00:10:23.287Z,91.21
2022-10-04T00:12:54.231Z,90.96
2022-10-04T00:15:26.660Z,91.00
2022-10-04T00:18:08.922Z,91.40
2022-10-04T00:21:03.785Z,91.54
2022-10-04T00:23:44.369Z,92.01
2022-10-04T00:26:36.505Z,91.89
2022-10-04T00:29:30.739Z,92.06
2022-10-04T00:32:30.747Z,92.02
2022-10-04T00:35:00.906Z,92.03
2022-10-04T00:37:49.059Z,91.65
2022-10-04T00:40:21.430Z,90.39
2022-10-04T00:42:58.723Z,91.24
2022-10-04T00:45:35.037Z,90.33
2022-10-04T00:48:21.007Z,90.99
2022-10-04T00:50:55.343Z,91.61
2022-10-04T00:53:49.027Z,90.80
2022-10-04T00:56:25.103Z,90.93
2022-10-04T00:59:30.447Z,90.83
2022-10-04T01:02:03.525Z,91.65
2022-10-04T01:04:43.388Z,92.49
2022-10-04T01:07:17.604Z,92.82
2022-10-04T01:09:51.226Z,91.94
2022-10-04T01:12:32.965Z,92.63
2022-10-04T01:15:07.448Z,92.75
2022-10-04T01:17:35.463Z,92.76
2022-10-04T01:20:03.808Z,92.45
2022-10-04T01:22:39.039Z,92.25
2022-10-04T01:25:07.413Z,92.48
2022-10-04T01:27:38.808Z,92.14
2022-10-04T01:30:10.226Z,92.31
2022-10-04T01:32:40.171Z,91.96
2022-10-04T01:35:10.655Z,92.77
2022-10-04T01:37:40.623Z,93.03
2022-10-04T01:40:10.430Z,93.34
2022-10-04T01:42:44.651Z,92.77
2022-10-04T01:45:20.559Z,92.15
2022-10-04T01:47:54.145Z,92.20
2022-10-04T01:50:28.715Z,91.87
2022-10-04T01:53:07.774Z,92.36
2022-10-04T01:55:38.343Z,91.95
2022-10-04T01:58:12.318Z,92.53
2022-10-04T02:00:45.002Z,92.62
2022-10-04T02:03:19.048Z,92.04
2022-10-04T02:05:52.732Z,92.16
2022-10-04T02:08:30.629Z,92.10
2022-10-04T02:11:00.628Z,92.12
2022-10-04T02:13:35.306Z,91.43
2022-10-04T02:16:04.140Z,91.07
2022-10-04T02:18:34.282Z,90.62
2022-10-04T02:21:03.773Z,91.49
2022-10-04T02:23:34.250Z,91.86
2022-10-04T02:26:05.904Z,91.38
2022-10-04T02:28:34.778Z,91.09
2022-10-04T02:31:20.806Z,92.00
2022-10-04T02:33:51.766Z,91.54
2022-10-04T02:36:24.939Z,92.38
2022-10-04T02:39:00.375Z,91.84
2022-10-04T02:41:33.804Z,91.20
2022-10-04T02:44:06.232Z,91.03
2022-10-04T02:46:38.009Z,91.13
2022-10-04T02:49:11.786Z,91.76
2022-10-04T02:51:45.316Z,91.13
2022-10-04T02:54:30.086Z,91.51
2022-10-04T02:56:59.482Z,92.13
2022-10-04T02:59:27.565Z,92.28
2022-10-04T03:01:57.636Z,91.24
2022-10-04T03:04:28.544Z,92.36
2022-10-04T03:06:58.658Z,92.51
2022-10-04T03:09:30.083Z,93.35
2022-10-04T03:11:59.059Z,93.38
2022-10-04T03:14:28.848Z,92.92
2022-10-04T03:17:01.633Z,92.06
2022-10-04T03:19:32.379Z,92.09
2022-10-04T03:22:03.353Z,92.46
2022-10-04T03:24:37.538Z,92.06
2022-10-04T03:27:09.306Z,91.72
2022-10-04T03:29:42.784Z,91.16
2022-10-04T03:32:15.005Z,91.20
2022-10-04T03:34:49.455Z,91.54
2022-10-04T03:37:21.538Z,91.53
2022-10-04T03:39:54.048Z,92.01
2022-10-04T03:42:24.345Z,92.30
2022-10-04T03:44:56.283Z,92.26
2022-10-04T03:47:28.886Z,91.89
2022-10-04T03:49:59.473Z,91.73
2022-10-04T03:52:32.154Z,91.94
2022-10-04T03:55:06.724Z,91.44
2022-10-04T03:57:37.974Z,91.15
2022-10-04T04:00:07.725Z,91.63
2022-10-04T04:02:46.149Z,91.21
2022-10-04T04:05:20.129Z,91.56
2022-10-04T04:07:54.213Z,92.26
2022-10-04T04:10:27.300Z,92.12
2022-10-04T04:12:58.283Z,91.93
2022-10-04T04:15:31.137Z,91.77
2022-10-04T04:18:03.512Z,92.68
2022-10-04T04:20:33.876Z,92.72
2022-10-04T04:23:05.213Z,93.22
2022-10-04T04:25:41.989Z,92.58
2022-10-04T04:28:25.548Z,93.23
2022-10-04T04:30:57.734Z,93.05
2022-10-04T04:33:31.142Z,93.17
2022-10-04T04:36:06.442Z,93.60
2022-10-04T04:38:35.598Z,92.86
2022-10-04T04:41:11.646Z,93.65
2022-10-04T04:43:44.654Z,93.71
2022-10-04T04:46:28.475Z,93.93
2022-10-04T04:49:01.848Z,93.14
2022-10-04T04:51:31.536Z,93.25
2022-10-04T04:54:03.382Z,94.38
2022-10-04T04:56:32.953Z,94.41
2022-10-04T04:59:04.377Z,94.45
2022-10-04T05:01:36.386Z,94.21
2022-10-04T05:04:07.420Z,94.33
2022-10-04T05:06:37.150Z,93.74
2022-10-04T05:09:06.442Z,94.43
2022-10-04T05:11:38.619Z,94.87
2022-10-04T05:14:10.120Z,94.41
2022-10-04T05:16:43.574Z,94.99
2022-10-04T05:19:16.792Z,94.00
2022-10-04T05:21:47.671Z,94.17
2022-10-04T05:24:22.593Z,94.55
2022-10-04T05:26:55.271Z,94.53
2022-10-04T05:29:27.895Z,94.40
2022-10-04T05:32:07.045Z,94.27
2022-10-04T05:34:40.034Z,94.60
2022-10-04T05:37:22.318Z,94.61
2022-10-04T05:40:00.280Z,93.44
2022-10-04T05:42:37.754Z,95.28
2022-10-04T05:45:15.758Z,94.42
2022-10-04T05:47:44.837Z,94.93
2022-10-04T05:50:18.704Z,94.39
2022-10-04T05:52:50.187Z,93.99
2022-10-04T05:55:27.118Z,93.43
2022-10-04T05:58:18.141Z,92.84
2022-10-04T06:01:03.082Z,92.94
2022-10-04T06:03:44.482Z,93.72
2022-10-04T06:06:20.071Z,92.84
2022-10-04T06:09:09.404Z,92.61
2022-10-04T06:11:49.693Z,91.88
2022-10-04T06:14:39.109Z,93.14
2022-10-04T06:17:22.228Z,93.75
2022-10-04T06:20:09.727Z,93.70
2022-10-04T06:22:44.698Z,93.20
2022-10-04T06:25:26.376Z,92.65
2022-10-04T06:28:03.342Z,92.34
2022-10-04T06:30:43.491Z,91.66
2022-10-04T06:33:32.767Z,91.52
2022-10-04T06:36:16.132Z,90.76
2022-10-04T06:39:04.038Z,90.51
2022-10-04T06:41:54.740Z,90.33
2022-10-04T06:44:40.067Z,90.37
2022-10-04T06:47:26.075Z,90.04
2022-10-04T06:49:57.958Z,89.02
2022-10-04T06:52:34.639Z,89.01
2022-10-04T06:55:21.478Z,87.35
2022-10-04T06:58:10.302Z,87.93
2022-10-04T07:00:45.995Z,86.97
2022-10-04T07:03:21.662Z,86.56
2022-10-04T07:05:55.273Z,86.38
2022-10-04T07:08:34.121Z,85.50
2022-10-04T07:11:12.196Z,84.45
2022-10-04T07:13:46.701Z,84.16
2022-10-04T07:16:30.331Z,82.98
2022-10-04T07:19:09.643Z,82.71
2022-10-04T07:21:45.403Z,82.55
2022-10-04T07:24:22.445Z,82.12
2022-10-04T07:26:53.579Z,81.27
2022-10-04T07:29:24.736Z,81.48
2022-10-04T07:32:05.629Z,81.18
2022-10-04T07:34:41.989Z,80.49
2022-10-04T07:37:12.797Z,80.94
2022-10-04T07:39:47.396Z,80.85
2022-10-04T07:42:26.873Z,80.21
2022-10-04T07:45:10.959Z,80.00
2022-10-04T07:47:39.374Z,79.23
2022-10-04T07:50:29.419Z,79.88
2022-10-04T07:53:05.898Z,79.67
2022-10-04T07:55:46.845Z,79.16
2022-10-04T07:58:29.407Z,79.75
2022-10-04T08:01:01.787Z,79.97
2022-10-04T08:03:59.618Z,79.96
2022-10-04T08:06:37.556Z,79.72
2022-10-04T08:09:24.889Z,80.48
2022-10-04T08:12:03.299Z,80.77
2022-10-04T08:14:51.225Z,81.53
2022-10-04T08:17:29.774Z,81.50
2022-10-04T08:20:08.629Z,81.94
2022-10-04T08:22:52.045Z,81.89
2022-10-04T08:25:25.250Z,82.32
2022-10-04T08:28:20.859Z,80.53
2022-10-04T08:31:05.112Z,83.19
2022-10-04T08:33:52.234Z,80.09
2022-10-04T08:36:34.139Z,79.72
2022-10-04T08:39:08.028Z,79.47
2022-10-04T08:42:07.242Z,79.23
2022-10-04T08:45:12.385Z,78.24
2022-10-04T08:48:24.837Z,77.85
2022-10-04T08:51:52.302Z,78.70
2022-10-04T08:54:57.068Z,77.59
2022-10-04T08:57:51.693Z,77.27
2022-10-04T09:00:24.272Z,77.04
2022-10-04T09:03:39.836Z,75.76
2022-10-04T09:06:33.415Z,74.96
2022-10-04T09:09:40.696Z,75.70
2022-10-04T09:12:29.947Z,75.50
2022-10-04T09:15:27.089Z,75.10
2022-10-04T09:18:02.819Z,74.99
2022-10-04T09:20:49.524Z,74.37
2022-10-04T09:23:42.789Z,73.41
2022-10-04T09:26:22.160Z,72.60
2022-10-04T09:29:41.728Z,73.11
2022-10-04T09:32:29.177Z,72.31
2022-10-04T09:35:17.583Z,72.34
2022-10-04T09:38:06.708Z,72.26
2022-10-04T09:41:15.690Z,72.82
2022-10-04T09:44:24.866Z,72.30
2022-10-04T09:47:06.239Z,71.85
2022-10-04T09:50:13.821Z,71.87
2022-10-04T09:52:49.574Z,71.52
2022-10-04T09:55:36.504Z,71.74
2022-10-04T09:58:29.380Z,71.31
2022-10-04T10:01:05.129Z,71.28
2022-10-04T10:03:52.943Z,71.48
2022-10-04T10:06:36.855Z,70.26
2022-10-04T10:09:43.491Z,70.29
2022-10-04T10:12:45.484Z,70.26
2022-10-04T10:15:31.427Z,69.31
2022-10-04T10:18:10.068Z,67.58
2022-10-04T10:21:06.313Z,68.99
2022-10-04T10:23:58.464Z,69.94
2022-10-04T10:26:44.388Z,69.46
2022-10-04T10:29:41.343Z,68.25
2022-10-04T10:32:37.191Z,68.03
2022-10-04T10:35:24.767Z,68.33
2022-10-04T10:38:09.727Z,66.94
2022-10-04T10:40:52.893Z,66.99
2022-10-04T10:43:36.080Z,67.37
2022-10-04T10:46:16.860Z,66.91
2022-10-04T10:49:03.866Z,67.03
2022-10-04T10:52:02.411Z,66.50
2022-10-04T10:55:06.809Z,63.21
2022-10-04T10:58:04.375Z,63.43
2022-10-04T11:00:46.132Z,62.30
2022-10-04T11:03:32.526Z,62.53
2022-10-04T11:06:15.477Z,62.29
2022-10-04T11:09:12.194Z,62.44
2022-10-04T11:12:14.366Z,62.52
2022-10-04T11:15:07.264Z,61.39
2022-10-04T11:18:15.237Z,61.00
2022-10-04T11:21:03.510Z,59.47
2022-10-04T11:24:06.505Z,58.92
2022-10-04T11:27:01.572Z,58.57
2022-10-04T11:29:48.852Z,59.48
2022-10-04T11:33:06.060Z,59.09
2022-10-04T11:36:12.639Z,59.24
2022-10-04T11:38:56.144Z,59.34
2022-10-04T11:41:35.404Z,59.17
2022-10-04T11:44:22.190Z,59.79
2022-10-04T11:46:57.836Z,60.09
2022-10-04T11:49:56.607Z,57.07
2022-10-04T11:52:57.636Z,56.37
2022-10-04T11:56:04.519Z,56.17
2022-10-04T11:58:46.394Z,55.52
2022-10-04T12:01:46.850Z,55.95
2022-10-04T12:04:59.341Z,55.51
2022-10-04T12:07:39.892Z,56.27
2022-10-04T12:10:22.942Z,56.45
2022-10-04T12:13:24.407Z,58.71
2022-10-04T12:16:11.765Z,57.43
2022-10-04T12:19:15.593Z,57.87
2022-10-04T12:21:59.348Z,58.79
2022-10-04T12:24:53.793Z,58.22
2022-10-04T12:27:52.342Z,58.01
2022-10-04T12:30:28.627Z,58.62
2022-10-04T12:33:12.942Z,57.86
2022-10-04T12:36:04.259Z,57.38
2022-10-04T12:39:02.654Z,56.22
2022-10-04T12:41:38.089Z,55.51
2022-10-04T12:44:23.467Z,55.51
2022-10-04T12:47:01.014Z,54.86
2022-10-04T12:49:45.318Z,54.54
2022-10-04T12:52:21.014Z,54.64
2022-10-04T12:54:58.214Z,54.88
2022-10-04T12:57:47.457Z,54.86
2022-10-04T13:00:20.489Z,55.46
2022-10-04T13:03:09.811Z,56.20
2022-10-04T13:09:03.453Z,56.49
2022-10-04T13:11:52.584Z,56.79
2022-10-04T13:14:41.645Z,56.46
2022-10-04T13:17:35.241Z,56.32
2022-10-04T13:20:28.423Z,56.88
2022-10-04T13:23:08.351Z,56.52
2022-10-04T13:26:15.423Z,56.56
2022-10-04T13:28:55.862Z,56.88
2022-10-04T13:31:33.466Z,57.02
2022-10-04T13:34:11.896Z,56.23
2022-10-04T13:36:56.046Z,57.06
2022-10-04T13:39:44.883Z,57.50
2022-10-04T13:42:39.601Z,57.51
2022-10-04T13:45:26.063Z,57.57
2022-10-04T13:48:21.985Z,56.89
2022-10-04T13:51:15.372Z,56.85
2022-10-04T13:54:09.360Z,56.24
2022-10-04T13:56:57.787Z,54.73
2022-10-04T13:59:42.358Z,55.29
2022-10-04T14:02:32.141Z,55.65
2022-10-04T14:05:47.754Z,55.30
2022-10-04T14:08:33.324Z,56.69
2022-10-04T14:11:33.288Z,56.80
2022-10-04T14:14:23.870Z,56.45
2022-10-04T14:17:22.921Z,56.63
2022-10-04T14:20:24.610Z,56.17
2022-10-04T14:23:23.640Z,56.30
2022-10-04T14:26:11.512Z,56.80
2022-10-04T14:29:15.962Z,57.06
2022-10-04T14:32:23.039Z,56.77
2022-10-04T14:35:02.301Z,56.38
2022-10-04T14:37:54.989Z,56.55
2022-10-04T14:40:47.873Z,57.00
2022-10-04T14:43:46.583Z,57.85
2022-10-04T14:46:22.696Z,58.08
2022-10-04T14:49:05.508Z,57.79
2022-10-04T14:52:06.617Z,57.72
2022-10-04T14:54:46.391Z,58.21
2022-10-04T14:57:22.885Z,57.56
2022-10-04T15:00:21.859Z,57.86
2022-10-04T15:03:14.878Z,58.42
2022-10-04T15:06:00.193Z,58.67
2022-10-04T15:08:58.267Z,58.38
2022-10-04T15:23:48.710Z,58.39
2022-10-04T15:29:24.162Z,57.37
2022-10-04T15:32:05.122Z,57.70
2022-10-04T15:34:42.248Z,57.75
2022-10-04T15:37:25.599Z,58.74
2022-10-04T15:40:10.487Z,57.23
2022-10-04T15:42:41.246Z,57.00
2022-10-04T15:45:36.434Z,57.55
2022-10-04T15:48:25.120Z,58.00
2022-10-04T15:51:12.016Z,57.88
2022-10-04T15:53:59.644Z,58.06
2022-10-04T15:56:37.818Z,58.20
2022-10-04T15:59:26.287Z,58.11
2022-10-04T16:02:25.549Z,59.04
2022-10-04T16:05:05.156Z,60.10
2022-10-04T16:07:55.792Z,60.60
2022-10-04T16:10:32.736Z,60.64
2022-10-04T16:13:34.248Z,61.01
2022-10-04T16:16:41.367Z,61.61
2022-10-04T16:19:28.744Z,62.69
2022-10-04T16:22:16.141Z,63.33
2022-10-04T16:24:51.355Z,64.01
2022-10-04T16:27:43.203Z,64.13
2022-10-04T16:30:27.203Z,64.78
2022-10-04T16:33:32.292Z,66.05
2022-10-04T16:36:14.821Z,66.43
2022-10-04T16:39:02.003Z,66.99
2022-10-04T16:41:40.076Z,67.19
2022-10-04T16:44:28.895Z,67.86
2022-10-04T16:47:03.544Z,68.90
2022-10-04T16:49:41.348Z,69.17
2022-10-04T16:52:35.668Z,69.81
2022-10-04T16:55:47.164Z,70.63
2022-10-04T16:58:57.304Z,71.28
2022-10-04T17:02:07.927Z,71.62
2022-10-04T17:05:16.473Z,72.19
2022-10-04T17:08:04.728Z,73.05
2022-10-04T17:10:41.215Z,73.50
2022-10-04T17:13:23.274Z,74.25
2022-10-04T17:16:02.694Z,74.89
2022-10-04T17:18:44.805Z,75.10
2022-10-04T17:21:29.278Z,75.32
2022-10-04T17:24:20.059Z,75.51
2022-10-04T17:27:07.413Z,76.38
2022-10-04T17:29:49.384Z,77.41
2022-10-04T17:32:27.404Z,77.20
2022-10-04T17:35:13.726Z,78.02
2022-10-04T17:37:51.243Z,78.63
2022-10-04T17:40:33.121Z,78.66
2022-10-04T17:43:08.064Z,79.19
2022-10-04T17:46:09.946Z,78.95
2022-10-04T17:49:05.031Z,79.00
2022-10-04T17:51:59.805Z,78.64
2022-10-04T17:54:49.986Z,80.38
2022-10-04T17:57:27.066Z,80.69
2022-10-04T18:00:01.111Z,80.33
2022-10-04T18:02:46.220Z,80.32
2022-10-04T18:05:19.578Z,80.66
2022-10-04T18:07:55.819Z,81.28
2022-10-04T18:10:29.948Z,81.46
2022-10-04T18:13:04.683Z,82.03
2022-10-04T18:15:37.465Z,81.90
2022-10-04T18:18:16.921Z,82.04
2022-10-04T18:21:05.282Z,82.65
2022-10-04T18:23:39.854Z,82.20
2022-10-04T18:26:17.640Z,82.13
2022-10-04T18:28:49.203Z,81.48
2022-10-04T18:31:25.462Z,81.81
2022-10-04T18:33:54.310Z,81.69
2022-10-04T18:36:27.460Z,81.09
2022-10-04T18:39:20.771Z,81.32
2022-10-04T18:41:59.275Z,81.04
2022-10-04T18:44:31.283Z,81.31
2022-10-04T18:47:02.435Z,81.49
2022-10-04T18:49:33.900Z,81.35
2022-10-04T18:52:14.374Z,81.23
2022-10-04T18:54:50.526Z,81.22
2022-10-04T18:57:32.423Z,81.45
2022-10-04T19:00:28.119Z,80.83
2022-10-04T19:03:10.035Z,81.19
2022-10-04T19:05:44.447Z,81.31
2022-10-04T19:08:30.018Z,81.59
2022-10-04T19:11:04.149Z,81.29
2022-10-04T19:13:43.146Z,80.78
2022-10-04T19:16:35.177Z,80.90
2022-10-04T19:19:28.346Z,80.96
2022-10-04T19:22:02.787Z,81.31
2022-10-04T19:24:57.837Z,80.68
2022-10-04T19:27:31.165Z,80.93
2022-10-04T19:30:15.339Z,80.60
2022-10-04T19:33:10.656Z,80.82
2022-10-04T19:36:00.357Z,80.98
2022-10-04T20:06:11.422Z,82.78
2022-10-04T20:08:59.396Z,83.31
2022-10-04T20:11:48.396Z,83.25
2022-10-04T20:14:47.039Z,83.14
2022-10-04T20:17:34.058Z,83.72
2022-10-04T20:20:03.009Z,83.36
2022-10-04T20:23:00.537Z,83.27
2022-10-04T20:26:06.276Z,83.00
2022-10-04T20:28:43.367Z,83.24
2022-10-04T20:31:13.361Z,83.16
2022-10-04T20:33:56.692Z,83.09
2022-10-04T20:36:50.920Z,83.54
2022-10-04T20:40:00.905Z,83.51
2022-10-04T20:42:40.653Z,83.43
2022-10-04T20:45:23.347Z,83.36
2022-10-04T20:47:54.774Z,82.94
2022-10-04T20:50:43.170Z,83.04
2022-10-04T20:53:18.599Z,83.17
2022-10-04T20:55:46.909Z,83.20
2022-10-04T20:58:32.270Z,83.04
2022-10-04T21:01:13.958Z,83.42
2022-10-04T21:03:41.959Z,83.79
2022-10-04T21:06:11.935Z,83.12
2022-10-04T21:08:40.888Z,83.85
2022-10-04T21:11:21.376Z,84.54
2022-10-04T21:13:57.009Z,84.79
2022-10-04T21:16:43.209Z,84.82
2022-10-04T21:19:32.125Z,85.02
2022-10-04T21:22:01.256Z,84.70
2022-10-04T21:24:35.951Z,85.82
2022-10-04T21:27:05.269Z,85.20
2022-10-04T21:29:34.543Z,85.82
2022-10-04T21:32:03.380Z,85.97
2022-10-04T21:34:51.901Z,86.34
2022-10-04T21:37:19.375Z,87.55
2022-10-04T21:39:47.496Z,87.96
2022-10-04T21:42:16.867Z,87.94
2022-10-04T21:44:46.321Z,87.75
2022-10-04T21:47:15.662Z,87.14
2022-10-04T21:49:43.718Z,87.15
2022-10-04T21:52:11.940Z,87.14
2022-10-04T21:54:43.444Z,87.24
2022-10-04T21:57:11.611Z,86.46
2022-10-04T21:59:39.550Z,86.01
2022-10-04T22:02:09.313Z,86.21
2022-10-04T22:04:38.114Z,85.72
2022-10-04T22:07:07.874Z,85.58
2022-10-04T22:09:36.042Z,85.56
2022-10-04T22:12:04.124Z,85.26
2022-10-04T22:14:32.449Z,84.88
2022-10-04T22:17:02.603Z,84.61
2022-10-04T22:19:32.200Z,84.98
2022-10-04T22:22:00.201Z,84.58
2022-10-04T22:24:28.560Z,84.47
2022-10-04T22:26:58.372Z,84.13
2022-10-04T22:29:27.984Z,84.86
2022-10-04T22:31:56.130Z,84.47
2022-10-04T22:34:24.129Z,84.47
2022-10-04T22:36:53.831Z,83.79
2022-10-04T22:39:22.802Z,84.55
2022-10-04T22:41:56.502Z,84.47
2022-10-04T22:44:28.866Z,84.65
2022-10-04T22:46:59.977Z,85.25
2022-10-04T22:49:30.885Z,84.96
2022-10-04T22:52:02.012Z,85.10
2022-10-04T22:54:33.664Z,85.08
2022-10-04T22:57:01.659Z,85.33
2022-10-04T22:59:36.278Z,85.18
2022-10-04T23:02:07.918Z,85.36
2022-10-04T23:04:35.861Z,85.27
2022-10-04T23:07:05.188Z,85.59
2022-10-04T23:09:33.158Z,85.60
2022-10-04T23:12:01.186Z,85.54
2022-10-04T23:14:29.055Z,86.01
2022-10-04T23:16:56.918Z,86.00
2022-10-04T23:19:25.854Z,85.54
2022-10-04T23:21:53.803Z,85.01
2022-10-04T23:24:23.946Z,84.34
2022-10-04T23:26:57.351Z,84.33
2022-10-04T23:29:27.246Z,84.33
2022-10-04T23:31:56.876Z,83.92
2022-10-04T23:34:30.419Z,83.61
2022-10-04T23:36:58.423Z,83.67
2022-10-04T23:39:31.199Z,83.67
2022-10-04T23:41:59.418Z,83.64
2022-10-04T23:44:38.096Z,83.97
2022-10-04T23:47:12.546Z,83.52
2022-10-04T23:49:40.712Z,83.57
2022-10-04T23:52:14.621Z,84.12
2022-10-04T23:54:44.136Z,83.76
2022-10-04T23:57:17.330Z,84.06
2022-10-04T23:59:45.241Z,84.67
